< < Back
Terminal Aerodrome Forecast


Current Version              Previous Versions:   1  2  3  4  5  6  7  8  9  

Terminal Aerodrome Forecast

386
FTUS42 KGSP 211700
TAFGSP
TAF
KGSP 211728Z 2118/2218 26007G16KT P6SM FEW250
     FM212200 30010G20KT P6SM SCT060
     FM220000 35007KT P6SM FEW060
     FM220600 35005KT P6SM SKC=

Latest METAR

030
SAUS70 KWBC 201900 RRX
MTRGSP
METAR KGSP 211753Z VRB03KT 10SM FEW050 23/09 A2990 RMK AO2 SLP116
T02280094 10228 20089 58020


USA.gov is the U.S. government's official web portal to all federal, state and local government web resources and services.